createdAt,value
2022-10-05T00:01:44.827Z,2.80
2022-10-05T00:04:17.248Z,2.60
2022-10-05T00:06:48.664Z,2.85
2022-10-05T00:09:21.059Z,2.72
2022-10-05T00:11:51.149Z,2.90
2022-10-05T00:14:21.779Z,2.88
2022-10-05T00:16:50.975Z,2.72
2022-10-05T00:19:34.621Z,2.83
2022-10-05T00:22:12.170Z,2.80
2022-10-05T00:24:42.329Z,2.70
2022-10-05T00:27:19.059Z,2.42
2022-10-05T00:29:49.489Z,2.60
2022-10-05T00:32:18.729Z,2.50
2022-10-05T00:34:51.129Z,2.50
2022-10-05T00:37:19.909Z,2.25
2022-10-05T00:39:51.369Z,2.25
2022-10-05T00:42:42.140Z,2.70
2022-10-05T00:45:15.619Z,2.60
2022-10-05T00:47:55.860Z,2.30
2022-10-05T00:50:59.236Z,2.17
2022-10-05T00:53:42.821Z,2.50
2022-10-05T00:56:27.130Z,2.10
2022-10-05T00:59:11.851Z,2.20
2022-10-05T01:01:48.636Z,2.20
2022-10-05T01:04:27.279Z,2.20
2022-10-05T01:07:07.249Z,2.25
2022-10-05T01:09:48.090Z,2.58
2022-10-05T01:12:27.001Z,2.05
2022-10-05T01:15:04.160Z,2.10
2022-10-05T01:17:42.189Z,2.30
2022-10-05T01:20:28.869Z,2.30
2022-10-05T01:23:24.629Z,2.45
2022-10-05T01:26:09.480Z,2.17
2022-10-05T01:28:47.209Z,2.00
2022-10-05T01:31:30.467Z,2.20
2022-10-05T01:34:11.605Z,2.10
2022-10-05T01:36:49.064Z,2.00
2022-10-05T01:39:28.578Z,2.05
2022-10-05T01:42:08.079Z,1.80
2022-10-05T01:44:47.130Z,2.20
2022-10-05T01:47:23.419Z,2.10
2022-10-05T01:50:01.635Z,1.90
2022-10-05T01:52:42.450Z,1.70
2022-10-05T01:55:21.519Z,1.88
2022-10-05T01:58:03.029Z,2.03
2022-10-05T02:00:36.929Z,2.00
2022-10-05T02:03:15.000Z,1.83
2022-10-05T02:05:52.829Z,1.77
2022-10-05T02:08:30.249Z,1.90
2022-10-05T02:11:03.769Z,2.05
2022-10-05T02:13:38.560Z,1.83
2022-10-05T02:16:14.700Z,1.83
2022-10-05T02:18:50.039Z,2.22
2022-10-05T02:21:20.049Z,2.00
2022-10-05T02:23:52.468Z,1.90
2022-10-05T02:26:22.129Z,1.90
2022-10-05T02:28:54.878Z,1.80
2022-10-05T02:31:30.375Z,1.85
2022-10-05T02:36:44.220Z,1.75
2022-10-05T02:39:18.079Z,1.85
2022-10-05T02:41:54.909Z,1.88
2022-10-05T02:44:34.961Z,1.98
2022-10-05T02:47:14.858Z,1.75
2022-10-05T02:49:49.511Z,1.80
2022-10-05T02:52:27.109Z,1.83
2022-10-05T02:55:04.019Z,1.70
2022-10-05T02:57:40.460Z,1.67
2022-10-05T03:00:15.303Z,1.73
2022-10-05T03:02:54.348Z,1.70
2022-10-05T03:05:29.539Z,1.70
2022-10-05T03:08:04.009Z,1.80
2022-10-05T03:10:39.483Z,1.77
2022-10-05T03:13:15.559Z,1.55
2022-10-05T03:15:59.068Z,1.67
2022-10-05T03:18:44.439Z,2.28
2022-10-05T03:21:23.130Z,1.88
2022-10-05T03:24:09.539Z,1.40
2022-10-05T03:26:48.301Z,2.80
2022-10-05T03:29:32.064Z,1.52
2022-10-05T03:32:08.890Z,1.77
2022-10-05T03:34:46.779Z,1.33
2022-10-05T03:37:22.449Z,1.50
2022-10-05T03:39:56.429Z,1.40
2022-10-05T03:42:31.982Z,1.33
2022-10-05T03:47:45.314Z,1.90
2022-10-05T03:50:33.529Z,1.42
2022-10-05T03:53:08.408Z,1.33
2022-10-05T03:55:42.759Z,1.52
2022-10-05T03:58:17.709Z,1.63
2022-10-05T04:00:50.169Z,1.40
2022-10-05T04:03:23.570Z,1.27
2022-10-05T04:05:57.870Z,1.33
2022-10-05T04:08:37.039Z,1.38
2022-10-05T04:11:11.569Z,1.27
2022-10-05T04:13:46.329Z,1.27
2022-10-05T04:16:18.810Z,1.20
2022-10-05T04:18:51.969Z,1.45
2022-10-05T04:21:26.389Z,1.60
2022-10-05T04:24:00.888Z,1.40
2022-10-05T04:26:41.209Z,1.20
2022-10-05T04:29:17.970Z,1.45
2022-10-05T04:31:59.989Z,1.30
2022-10-05T04:34:45.189Z,1.35
2022-10-05T04:37:23.381Z,1.30
2022-10-05T04:40:07.789Z,1.40
2022-10-05T04:42:41.839Z,1.50
2022-10-05T04:45:20.079Z,1.23
2022-10-05T04:48:19.088Z,1.20
2022-10-05T04:50:59.149Z,1.20
2022-10-05T04:53:34.779Z,1.55
2022-10-05T04:58:57.239Z,1.55
2022-10-05T05:01:42.728Z,2.28
2022-10-05T05:04:38.000Z,1.35
2022-10-05T05:07:19.519Z,1.30
2022-10-05T05:10:21.869Z,1.20
2022-10-05T05:12:59.969Z,1.40
2022-10-05T05:15:38.170Z,1.50
2022-10-05T05:18:35.518Z,1.45
2022-10-05T05:21:15.329Z,1.42
2022-10-05T05:23:52.949Z,1.52
2022-10-05T05:26:32.760Z,1.30
2022-10-05T05:29:16.020Z,1.20
2022-10-05T05:31:51.469Z,1.27
2022-10-05T05:34:37.209Z,1.15
2022-10-05T05:37:16.455Z,1.30
2022-10-05T05:39:59.489Z,1.52
2022-10-05T05:42:37.289Z,1.30
2022-10-05T05:45:17.946Z,1.50
2022-10-05T05:47:54.089Z,1.40
2022-10-05T05:50:43.280Z,1.30
2022-10-05T05:53:19.129Z,1.30
2022-10-05T05:55:51.540Z,1.20
2022-10-05T05:58:26.829Z,1.45
2022-10-05T06:00:59.771Z,1.55
2022-10-05T06:03:38.391Z,1.38
2022-10-05T06:06:10.845Z,1.00
2022-10-05T06:08:44.939Z,1.00
2022-10-05T06:11:19.380Z,1.40
2022-10-05T06:13:50.319Z,1.27
2022-10-05T06:16:27.148Z,3.50
2022-10-05T06:18:59.025Z,3.00
2022-10-05T06:21:33.601Z,2.60
2022-10-05T06:24:06.660Z,2.15
2022-10-05T06:26:48.362Z,2.50
2022-10-05T06:29:24.549Z,2.28
2022-10-05T06:32:06.448Z,4.38
2022-10-05T06:34:52.643Z,5.38
2022-10-05T06:40:05.177Z,5.97
2022-10-05T06:42:53.859Z,5.65
2022-10-05T06:45:36.688Z,5.88
2022-10-05T06:48:17.501Z,9.73
2022-10-05T06:50:54.099Z,15.85
2022-10-05T06:53:35.626Z,18.13
2022-10-05T06:56:10.672Z,22.45
2022-10-05T06:58:50.470Z,21.70
2022-10-05T07:01:32.509Z,22.85
2022-10-05T07:04:20.559Z,29.42
2022-10-05T07:06:54.580Z,29.10
2022-10-05T07:09:31.629Z,28.73
2022-10-05T07:12:27.929Z,30.95
2022-10-05T07:15:09.150Z,31.77
2022-10-05T07:17:54.230Z,31.77
2022-10-05T07:20:31.931Z,29.23
2022-10-05T07:23:25.350Z,28.63
2022-10-05T07:26:03.369Z,26.05
2022-10-05T07:28:40.547Z,26.77
2022-10-05T07:31:15.280Z,26.38
2022-10-05T07:33:53.459Z,26.60
2022-10-05T07:36:49.711Z,25.95
2022-10-05T07:39:58.309Z,24.08
2022-10-05T07:42:30.119Z,24.73
2022-10-05T07:45:09.982Z,23.35
2022-10-05T07:47:45.269Z,24.58
2022-10-05T07:50:22.091Z,23.50
2022-10-05T07:52:58.329Z,22.17
2022-10-05T07:55:29.019Z,21.35
2022-10-05T07:58:07.478Z,21.63
2022-10-05T08:00:56.198Z,19.98
2022-10-05T08:03:34.329Z,20.17
2022-10-05T08:06:09.521Z,20.20
2022-10-05T08:08:46.630Z,18.45
2022-10-05T08:11:18.689Z,19.65
2022-10-05T08:13:52.440Z,19.08
2022-10-05T08:16:22.404Z,18.20
2022-10-05T08:18:58.581Z,17.65
2022-10-05T08:21:34.619Z,18.45
2022-10-05T08:24:15.539Z,17.77
2022-10-05T08:26:53.520Z,17.50
2022-10-05T08:29:30.009Z,16.55
2022-10-05T08:32:04.010Z,15.48
2022-10-05T08:34:38.762Z,16.13
2022-10-05T08:37:15.099Z,15.60
2022-10-05T08:39:52.709Z,15.35
2022-10-05T08:42:49.710Z,15.15
2022-10-05T08:45:50.256Z,14.30
2022-10-05T08:48:43.899Z,14.77
2022-10-05T08:51:44.445Z,14.27
2022-10-05T08:54:39.738Z,13.15
2022-10-05T08:57:38.620Z,13.32
2022-10-05T09:00:13.215Z,12.80
2022-10-05T09:03:11.819Z,12.75
2022-10-05T09:06:14.683Z,12.65
2022-10-05T09:09:21.939Z,11.82
2022-10-05T09:12:08.429Z,11.13
2022-10-05T09:15:01.573Z,11.55
2022-10-05T09:18:08.819Z,11.02
2022-10-05T09:20:48.309Z,10.27
2022-10-05T09:23:32.940Z,7.60
2022-10-05T09:26:25.199Z,8.32
2022-10-05T09:29:12.529Z,8.48
2022-10-05T09:32:04.499Z,9.15
2022-10-05T09:35:06.292Z,8.20
2022-10-05T09:38:09.839Z,7.93
2022-10-05T09:41:04.987Z,8.25
2022-10-05T09:44:03.384Z,8.10
2022-10-05T09:47:14.669Z,7.88
2022-10-05T09:50:19.619Z,7.28
2022-10-05T09:53:20.281Z,7.78
2022-10-05T09:56:24.432Z,7.38
2022-10-05T09:59:32.490Z,7.38
2022-10-05T10:02:20.503Z,7.18
2022-10-05T10:05:15.860Z,7.00
2022-10-05T10:07:59.150Z,7.00
2022-10-05T10:10:57.821Z,7.13
2022-10-05T10:14:01.652Z,6.82
2022-10-05T10:16:57.939Z,6.82
2022-10-05T10:19:59.553Z,6.35
2022-10-05T10:23:04.370Z,7.05
2022-10-05T10:26:05.989Z,6.38
2022-10-05T10:29:10.460Z,6.50
2022-10-05T10:31:51.149Z,6.22
2022-10-05T10:34:44.349Z,6.40
2022-10-05T10:37:34.060Z,5.90
2022-10-05T10:40:23.660Z,6.38
2022-10-05T10:43:08.000Z,5.93
2022-10-05T10:45:49.682Z,5.80
2022-10-05T10:48:50.170Z,5.50
2022-10-05T10:51:27.189Z,5.25
2022-10-05T10:54:33.160Z,5.38
2022-10-05T10:57:07.309Z,5.50
2022-10-05T11:00:09.779Z,5.40
2022-10-05T11:03:05.350Z,4.53
2022-10-05T11:05:59.829Z,4.47
2022-10-05T11:09:15.759Z,3.92
2022-10-05T11:12:26.000Z,4.22
2022-10-05T11:15:15.000Z,4.00
2022-10-05T11:18:01.245Z,4.00
2022-10-05T11:21:05.270Z,4.00
2022-10-05T11:23:55.849Z,4.00
2022-10-05T11:26:43.789Z,4.30
2022-10-05T11:29:48.919Z,3.30
2022-10-05T11:32:48.260Z,3.75
2022-10-05T11:35:50.479Z,3.20
2022-10-05T11:38:42.669Z,3.60
2022-10-05T11:41:34.401Z,3.65
2022-10-05T11:44:39.119Z,3.63
2022-10-05T11:47:18.519Z,3.55
2022-10-05T11:49:56.270Z,3.72
2022-10-05T11:52:32.289Z,3.10
2022-10-05T11:55:24.909Z,3.40
2022-10-05T11:57:57.964Z,3.58
2022-10-05T12:00:32.888Z,3.22
2022-10-05T12:03:21.309Z,2.83
2022-10-05T12:06:13.579Z,3.00
2022-10-05T12:08:56.089Z,3.10
2022-10-05T12:11:44.430Z,2.80
2022-10-05T12:14:24.399Z,2.85
2022-10-05T12:17:00.449Z,2.78
2022-10-05T12:19:36.681Z,2.80
2022-10-05T12:22:15.729Z,2.90
2022-10-05T12:25:02.361Z,2.60
2022-10-05T12:27:35.629Z,2.45
2022-10-05T12:30:15.431Z,2.75
2022-10-05T12:33:01.724Z,2.33
2022-10-05T12:35:48.042Z,2.58
2022-10-05T12:38:25.200Z,2.60
2022-10-05T12:41:05.810Z,2.30
2022-10-05T12:43:44.613Z,2.35
2022-10-05T12:46:21.669Z,2.58
2022-10-05T12:49:23.379Z,2.40
2022-10-05T12:51:59.029Z,2.20
2022-10-05T12:54:38.975Z,2.42
2022-10-05T13:57:53.352Z,1.88
2022-10-05T14:00:26.595Z,2.17
2022-10-05T14:02:57.933Z,1.98
2022-10-05T14:05:28.212Z,2.10
2022-10-05T14:07:59.090Z,1.80
2022-10-05T14:10:34.189Z,2.10
2022-10-05T14:13:21.770Z,1.90
2022-10-05T14:16:21.948Z,1.80
2022-10-05T14:18:56.219Z,1.85
2022-10-05T14:21:26.610Z,2.10
2022-10-05T14:23:57.459Z,2.17
2022-10-05T14:26:36.729Z,2.10
2022-10-05T14:29:19.443Z,1.98
2022-10-05T14:31:52.549Z,1.73
2022-10-05T14:34:30.041Z,1.70
2022-10-05T14:37:00.256Z,1.88
2022-10-05T14:39:30.199Z,2.00
2022-10-05T14:42:14.019Z,2.20
2022-10-05T14:44:43.920Z,2.00
2022-10-05T14:47:23.060Z,2.20
2022-10-05T14:50:10.906Z,2.08
2022-10-05T14:52:41.319Z,2.10
2022-10-05T14:55:31.699Z,2.20
2022-10-05T14:58:12.814Z,2.20
2022-10-05T15:00:55.639Z,1.70
2022-10-05T15:03:42.662Z,1.35
2022-10-05T15:06:22.659Z,2.33
2022-10-05T15:09:16.740Z,1.90
2022-10-05T15:11:52.475Z,2.00
2022-10-05T15:14:24.324Z,2.03
2022-10-05T15:16:57.711Z,2.03
2022-10-05T15:19:34.578Z,1.60
2022-10-05T15:22:19.078Z,2.08
2022-10-05T15:24:58.013Z,2.13
2022-10-05T15:27:37.384Z,2.03
2022-10-05T15:30:12.027Z,1.90
2022-10-05T15:32:50.711Z,1.93
2022-10-05T15:35:54.456Z,2.30
2022-10-05T15:38:26.735Z,2.33
2022-10-05T15:41:08.184Z,2.33
2022-10-05T15:43:50.895Z,2.15
2022-10-05T15:46:25.848Z,2.30
2022-10-05T15:49:05.525Z,2.20
2022-10-05T15:51:50.998Z,2.05
2022-10-05T15:55:01.994Z,2.03
2022-10-05T15:57:40.848Z,1.85
2022-10-05T16:00:14.265Z,1.90
2022-10-05T16:02:49.427Z,2.00
2022-10-05T16:05:51.464Z,2.50
2022-10-05T16:08:54.925Z,2.20
2022-10-05T16:11:38.608Z,2.00
2022-10-05T16:14:20.675Z,2.00
2022-10-05T16:17:04.547Z,2.28
2022-10-05T16:19:42.945Z,1.60
2022-10-05T16:22:20.814Z,1.98
2022-10-05T16:25:12.165Z,1.83
2022-10-05T16:27:54.515Z,2.10
2022-10-05T16:30:26.204Z,2.20
2022-10-05T16:33:05.428Z,2.00
2022-10-05T16:35:44.648Z,2.10
2022-10-05T16:38:27.984Z,2.58
2022-10-05T16:41:05.314Z,1.90
2022-10-05T16:43:45.461Z,1.95
2022-10-05T16:46:27.686Z,1.92
2022-10-05T16:49:05.379Z,1.90
2022-10-05T16:51:41.604Z,1.90
2022-10-05T16:54:20.637Z,2.05
2022-10-05T16:56:54.450Z,1.92
2022-10-05T17:00:23.821Z,1.80
2022-10-05T17:03:11.984Z,2.10
2022-10-05T17:06:06.334Z,1.92
2022-10-05T17:08:52.879Z,1.80
2022-10-05T17:11:37.149Z,1.90
2022-10-05T17:14:21.699Z,2.30
2022-10-05T17:17:03.374Z,2.30
2022-10-05T17:19:55.089Z,2.00
2022-10-05T17:22:28.584Z,1.80
2022-10-05T17:25:06.846Z,2.10
2022-10-05T17:27:52.516Z,2.17
2022-10-05T17:30:24.834Z,2.10
2022-10-05T17:32:58.533Z,1.90
2022-10-05T17:35:52.106Z,1.95
2022-10-05T17:38:23.597Z,2.10
2022-10-05T17:41:17.045Z,2.03
2022-10-05T17:44:22.524Z,2.30
2022-10-05T17:46:56.243Z,2.47
2022-10-05T17:50:15.774Z,2.83
2022-10-05T17:53:02.818Z,5.43
2022-10-05T17:56:03.734Z,3.90
2022-10-05T17:59:03.495Z,2.45
2022-10-05T18:01:34.722Z,3.03
2022-10-05T18:04:33.824Z,8.90
2022-10-05T18:07:25.437Z,6.85
2022-10-05T18:10:17.639Z,6.63
2022-10-05T18:12:49.183Z,6.82
2022-10-05T18:15:49.394Z,6.85
2022-10-05T18:18:59.148Z,7.50
2022-10-05T18:21:40.354Z,6.50
2022-10-05T18:24:37.394Z,6.78
2022-10-05T18:27:27.480Z,6.90
2022-10-05T18:30:07.974Z,6.85
2022-10-05T18:33:08.614Z,6.72
2022-10-05T18:35:51.289Z,20.77
2022-10-05T18:38:34.465Z,40.47
2022-10-05T18:41:10.247Z,35.63
2022-10-05T18:43:45.054Z,22.70
2022-10-05T18:46:29.322Z,20.80
2022-10-05T18:49:20.524Z,20.83
2022-10-05T18:51:54.045Z,22.70
2022-10-05T18:54:38.796Z,20.05
2022-10-05T18:57:43.364Z,19.55
2022-10-05T19:00:17.707Z,19.90
2022-10-05T19:02:52.463Z,19.27
2022-10-05T19:05:47.032Z,19.20
2022-10-05T19:08:27.449Z,17.02
2022-10-05T19:11:02.714Z,15.88
2022-10-05T19:13:42.359Z,16.13
2022-10-05T19:16:25.866Z,15.27
2022-10-05T19:19:11.336Z,15.48
2022-10-05T19:21:48.651Z,15.07
2022-10-05T19:24:44.659Z,14.38
2022-10-05T19:27:25.966Z,13.68
2022-10-05T19:30:14.930Z,13.07
2022-10-05T19:32:56.335Z,12.40
2022-10-05T19:35:32.759Z,12.90
2022-10-05T19:38:22.278Z,11.90
2022-10-05T19:40:58.684Z,11.85
2022-10-05T19:43:47.076Z,11.55
2022-10-05T19:46:27.782Z,10.80
2022-10-05T19:48:56.785Z,11.52
2022-10-05T19:51:31.036Z,10.75
2022-10-05T19:54:02.894Z,10.48
2022-10-05T19:56:35.374Z,11.02
2022-10-05T19:59:14.854Z,10.00
2022-10-05T20:01:51.343Z,9.80
2022-10-05T20:04:35.887Z,9.48
2022-10-05T20:07:05.247Z,8.85
2022-10-05T20:09:55.434Z,9.30
2022-10-05T20:12:24.394Z,9.57
2022-10-05T20:15:36.016Z,9.27
2022-10-05T20:18:58.651Z,8.52
2022-10-05T20:21:43.491Z,8.38
2022-10-05T20:24:14.196Z,8.13
2022-10-05T20:27:05.407Z,5.38
2022-10-05T20:29:47.344Z,4.57
2022-10-05T20:32:22.459Z,5.13
2022-10-05T20:34:56.360Z,6.07
2022-10-05T20:37:25.970Z,7.32
2022-10-05T20:40:00.574Z,7.30
2022-10-05T20:42:34.509Z,6.80
2022-10-05T20:45:07.949Z,6.70
2022-10-05T20:47:38.569Z,6.50
2022-10-05T20:50:09.687Z,6.50
2022-10-05T20:52:39.098Z,6.10
2022-10-05T20:55:09.970Z,6.80
2022-10-05T20:57:42.463Z,6.13
2022-10-05T21:00:15.464Z,6.70
2022-10-05T21:02:47.089Z,5.57
2022-10-05T21:05:16.400Z,5.80
2022-10-05T21:08:07.519Z,5.57
2022-10-05T21:10:38.304Z,5.57
2022-10-05T21:13:08.040Z,5.47
2022-10-05T21:15:37.225Z,5.75
2022-10-05T21:18:07.464Z,5.68
2022-10-05T21:20:36.394Z,5.22
2022-10-05T21:23:04.995Z,5.28
2022-10-05T21:25:34.371Z,5.07
2022-10-05T21:28:03.167Z,5.00
2022-10-05T21:30:32.184Z,5.47
2022-10-05T21:33:00.886Z,5.13
2022-10-05T21:35:31.458Z,4.85
2022-10-05T21:37:59.935Z,5.10
2022-10-05T21:40:28.515Z,4.95
2022-10-05T21:42:57.001Z,4.90
2022-10-05T21:45:25.535Z,4.97
2022-10-05T21:47:54.144Z,4.55
2022-10-05T21:50:22.679Z,4.60
2022-10-05T21:52:53.880Z,4.43
2022-10-05T21:55:23.004Z,4.32
2022-10-05T21:57:51.524Z,4.47
2022-10-05T22:00:20.848Z,4.55
2022-10-05T22:02:49.709Z,4.38
2022-10-05T22:05:18.349Z,4.28
2022-10-05T22:07:46.938Z,4.05
2022-10-05T22:10:18.390Z,4.68
2022-10-05T22:12:47.786Z,4.22
2022-10-05T22:15:16.747Z,4.40
2022-10-05T22:17:46.327Z,4.30
2022-10-05T22:20:16.024Z,4.20
2022-10-05T22:22:44.475Z,4.10
2022-10-05T22:25:13.015Z,4.00
2022-10-05T22:27:43.559Z,4.32
2022-10-05T22:30:28.360Z,4.05
2022-10-05T22:32:59.704Z,4.20
2022-10-05T22:35:32.095Z,3.83
2022-10-05T22:38:08.244Z,3.80
2022-10-05T22:40:41.495Z,3.70
2022-10-05T22:43:13.304Z,3.60
2022-10-05T22:45:42.937Z,3.72
2022-10-05T22:48:12.214Z,3.70
2022-10-05T22:50:40.834Z,3.80
2022-10-05T22:53:09.934Z,3.75
2022-10-05T22:55:38.408Z,3.40
2022-10-05T22:58:07.274Z,3.70
2022-10-05T23:00:57.533Z,3.35
2022-10-05T23:03:27.004Z,3.38
2022-10-05T23:05:58.736Z,3.30
2022-10-05T23:08:27.724Z,3.38
2022-10-05T23:11:02.185Z,3.50
2022-10-05T23:13:31.385Z,3.58
2022-10-05T23:16:07.266Z,3.45
2022-10-05T23:18:35.985Z,3.28
2022-10-05T23:21:07.695Z,3.33
2022-10-05T23:23:37.874Z,3.30
2022-10-05T23:26:08.714Z,3.20
2022-10-05T23:28:37.229Z,2.95
2022-10-05T23:31:09.536Z,2.80
2022-10-05T23:33:38.065Z,2.90
2022-10-05T23:36:10.144Z,3.25
2022-10-05T23:38:38.624Z,3.20
2022-10-05T23:41:08.904Z,2.95
2022-10-05T23:43:38.333Z,3.22
2022-10-05T23:46:08.813Z,3.10
2022-10-05T23:48:38.666Z,3.33
2022-10-05T23:51:08.264Z,3.08
2022-10-05T23:53:37.145Z,3.20
2022-10-05T23:56:06.014Z,3.10
2022-10-05T23:58:34.538Z,3.20
